createdAt,value
2022-10-06T00:02:23.401Z,101695.81
2022-10-06T00:04:50.146Z,101699.34
2022-10-06T00:07:16.737Z,101703.19
2022-10-06T00:09:43.440Z,101698.69
2022-10-06T00:12:10.654Z,101702.03
2022-10-06T00:14:37.612Z,101710.72
2022-10-06T00:17:04.410Z,101720.72
2022-10-06T00:19:31.426Z,101719.13
2022-10-06T00:21:58.094Z,101718.25
2022-10-06T00:24:24.790Z,101726.28
2022-10-06T00:26:51.375Z,101733.50
2022-10-06T00:29:18.928Z,101734.09
2022-10-06T00:31:45.825Z,101736.19
2022-10-06T00:34:13.000Z,101739.03
2022-10-06T00:36:39.684Z,101739.81
2022-10-06T00:39:06.248Z,101754.88
2022-10-06T00:41:32.968Z,101762.69
2022-10-06T00:43:59.744Z,101763.41
2022-10-06T00:46:36.626Z,101760.91
2022-10-06T00:49:31.740Z,101769.97
2022-10-06T00:52:03.968Z,101792.28
2022-10-06T00:54:31.716Z,101791.34
2022-10-06T00:56:58.299Z,101786.28
2022-10-06T00:59:24.920Z,101786.00
2022-10-06T01:02:03.602Z,101798.94
2022-10-06T01:04:36.988Z,101799.41
2022-10-06T01:07:04.099Z,101803.28
2022-10-06T01:09:31.641Z,101808.75
2022-10-06T01:12:01.054Z,101812.00
2022-10-06T01:14:28.392Z,101803.22
2022-10-06T01:16:59.349Z,101809.56
2022-10-06T01:19:36.056Z,101815.69
2022-10-06T01:22:05.908Z,101818.56
2022-10-06T01:24:32.887Z,101824.25
2022-10-06T01:27:00.118Z,101825.22
2022-10-06T01:29:27.065Z,101823.97
2022-10-06T01:31:53.658Z,101832.28
2022-10-06T01:34:20.387Z,101832.44
2022-10-06T01:36:46.946Z,101831.41
2022-10-06T01:39:13.545Z,101835.97
2022-10-06T01:41:40.120Z,101840.53
2022-10-06T01:44:06.716Z,101841.38
2022-10-06T01:46:33.425Z,101841.59
2022-10-06T01:49:00.083Z,101852.53
2022-10-06T01:51:26.671Z,101855.19
2022-10-06T01:53:53.258Z,101841.00
2022-10-06T01:56:21.194Z,101846.47
2022-10-06T01:58:48.516Z,101855.38
2022-10-06T02:01:15.252Z,101853.56
2022-10-06T02:03:44.701Z,101859.06
2022-10-06T02:06:11.782Z,101863.28
2022-10-06T02:08:38.613Z,101870.88
2022-10-06T02:11:09.445Z,101866.56
2022-10-06T02:13:37.588Z,101872.94
2022-10-06T02:16:06.827Z,101877.25
2022-10-06T02:18:33.889Z,101886.03
2022-10-06T02:21:01.143Z,101881.72
2022-10-06T02:23:27.881Z,101885.59
2022-10-06T02:26:02.422Z,101887.94
2022-10-06T02:28:29.539Z,101897.03
2022-10-06T02:31:01.347Z,101895.41
2022-10-06T02:33:28.025Z,101906.69
2022-10-06T02:35:56.092Z,101901.09
2022-10-06T02:38:23.926Z,101907.97
2022-10-06T02:40:51.480Z,101903.63
2022-10-06T02:43:18.192Z,101914.78
2022-10-06T02:45:44.744Z,101908.25
2022-10-06T02:48:11.709Z,101924.59
2022-10-06T02:50:38.965Z,101915.47
2022-10-06T02:53:08.712Z,101929.78
2022-10-06T02:55:35.973Z,101936.00
2022-10-06T02:58:03.700Z,101927.13
2022-10-06T03:00:30.337Z,101939.00
2022-10-06T03:02:57.081Z,101941.66
2022-10-06T03:05:23.781Z,101943.53
2022-10-06T03:07:50.414Z,101950.16
2022-10-06T03:10:17.015Z,101949.34
2022-10-06T03:12:43.631Z,101959.16
2022-10-06T03:15:10.405Z,101960.25
2022-10-06T03:17:43.131Z,101967.50
2022-10-06T03:20:09.775Z,101973.38
2022-10-06T03:22:36.328Z,101969.84
2022-10-06T03:25:09.815Z,101989.31
2022-10-06T03:27:36.399Z,101986.13
2022-10-06T03:30:04.337Z,101994.75
2022-10-06T03:32:30.917Z,101991.97
2022-10-06T03:34:57.495Z,102002.47
2022-10-06T03:37:24.227Z,102024.69
2022-10-06T03:39:50.832Z,102021.38
2022-10-06T03:42:17.421Z,102016.84
2022-10-06T03:44:43.999Z,102026.16
2022-10-06T03:47:16.068Z,102014.78
2022-10-06T03:49:43.693Z,102031.72
2022-10-06T03:52:10.264Z,102040.75
2022-10-06T03:54:37.040Z,102043.16
2022-10-06T03:57:04.430Z,102048.44
2022-10-06T03:59:34.296Z,102046.63
2022-10-06T04:02:00.967Z,102049.31
2022-10-06T04:04:28.954Z,102067.97
2022-10-06T04:06:55.593Z,102059.25
2022-10-06T04:09:22.248Z,102052.75
2022-10-06T04:11:48.957Z,102057.00
2022-10-06T04:14:16.572Z,102070.78
2022-10-06T04:16:48.900Z,102075.09
2022-10-06T04:19:17.283Z,102074.25
2022-10-06T04:21:46.163Z,102077.59
2022-10-06T04:24:13.024Z,102081.13
2022-10-06T04:26:42.217Z,102091.19
2022-10-06T04:29:08.852Z,102089.75
2022-10-06T04:31:37.313Z,102097.84
2022-10-06T04:34:05.428Z,102090.06
2022-10-06T04:36:39.742Z,102088.19
2022-10-06T04:39:08.795Z,102107.47
2022-10-06T04:41:37.152Z,102099.31
2022-10-06T04:44:04.731Z,102110.69
2022-10-06T04:46:47.929Z,102112.72
2022-10-06T04:49:20.014Z,102114.34
2022-10-06T04:51:48.807Z,102121.44
2022-10-06T04:54:15.504Z,102130.16
2022-10-06T04:56:42.040Z,102130.53
2022-10-06T04:59:08.589Z,102130.81
2022-10-06T05:01:36.659Z,102145.00
2022-10-06T05:04:04.939Z,102144.38
2022-10-06T05:06:34.128Z,102146.59
2022-10-06T05:09:05.959Z,102152.97
2022-10-06T05:11:33.391Z,102153.03
2022-10-06T05:13:59.994Z,102154.13
2022-10-06T05:16:28.628Z,102159.16
2022-10-06T05:18:55.374Z,102173.47
2022-10-06T05:21:24.490Z,102167.44
2022-10-06T05:23:51.136Z,102169.72
2022-10-06T05:26:20.077Z,102181.47
2022-10-06T05:28:47.116Z,102184.13
2022-10-06T05:31:22.019Z,102185.22
2022-10-06T05:33:48.879Z,102195.06
2022-10-06T05:36:17.939Z,102192.34
2022-10-06T05:38:45.091Z,102194.19
2022-10-06T05:41:14.095Z,102200.38
2022-10-06T05:43:41.174Z,102217.63
2022-10-06T05:46:13.152Z,102210.78
2022-10-06T05:48:39.879Z,102222.66
2022-10-06T05:51:08.503Z,102221.66
2022-10-06T05:53:36.126Z,102226.66
2022-10-06T05:56:08.127Z,102228.44
2022-10-06T05:58:36.097Z,102233.06
2022-10-06T06:01:11.183Z,102241.09
2022-10-06T06:03:39.173Z,102237.84
2022-10-06T06:06:16.264Z,102241.50
2022-10-06T06:08:42.925Z,102249.47
2022-10-06T06:11:09.618Z,102249.22
2022-10-06T06:13:36.180Z,102253.56
2022-10-06T06:16:05.185Z,102245.91
2022-10-06T06:18:32.776Z,102253.88
2022-10-06T06:21:01.486Z,102260.41
2022-10-06T06:23:36.533Z,102260.47
2022-10-06T06:26:06.903Z,102263.00
2022-10-06T06:28:35.653Z,102265.78
2022-10-06T06:31:04.976Z,102273.78
2022-10-06T06:33:31.944Z,102287.84
2022-10-06T06:36:03.320Z,102277.25
2022-10-06T06:38:32.163Z,102283.31
2022-10-06T06:40:59.489Z,102292.84
2022-10-06T06:43:26.558Z,102294.69
2022-10-06T06:45:53.479Z,102297.38
2022-10-06T06:48:20.704Z,102302.50
2022-10-06T06:50:55.965Z,102317.34
2022-10-06T06:53:22.561Z,102321.88
2022-10-06T06:55:52.538Z,102315.63
2022-10-06T06:58:20.406Z,102326.13
2022-10-06T07:00:48.554Z,102325.22
2022-10-06T07:03:32.821Z,102330.47
2022-10-06T07:06:09.581Z,102329.53
2022-10-06T07:08:45.357Z,102337.78
2022-10-06T07:11:17.608Z,102348.16
2022-10-06T07:13:45.639Z,102348.13
2022-10-06T07:16:33.576Z,102349.53
2022-10-06T07:19:24.458Z,102354.00
2022-10-06T07:22:17.410Z,102360.91
2022-10-06T07:25:08.727Z,102370.44
2022-10-06T07:27:36.995Z,102379.25
2022-10-06T07:30:05.271Z,102375.97
2022-10-06T07:32:32.992Z,102376.78
2022-10-06T07:35:06.637Z,102387.34
2022-10-06T07:37:35.239Z,102385.81
2022-10-06T07:40:02.053Z,102394.69
2022-10-06T07:42:28.678Z,102399.03
2022-10-06T07:45:13.976Z,102397.44
2022-10-06T07:47:40.629Z,102404.31
2022-10-06T07:50:08.254Z,102402.41
2022-10-06T07:52:39.457Z,102408.41
2022-10-06T07:55:06.861Z,102427.81
2022-10-06T07:57:34.938Z,102423.22
2022-10-06T08:00:05.406Z,102423.03
2022-10-06T08:02:35.478Z,102424.63
2022-10-06T08:05:03.684Z,102423.34
2022-10-06T08:07:30.278Z,102428.38
2022-10-06T08:09:56.842Z,102431.19
2022-10-06T08:12:37.945Z,102430.50
2022-10-06T08:15:07.625Z,102430.38
2022-10-06T08:17:36.127Z,102446.25
2022-10-06T08:20:04.316Z,102438.03
2022-10-06T08:22:31.010Z,102447.56
2022-10-06T08:25:08.483Z,102440.50
2022-10-06T08:27:36.883Z,102451.72
2022-10-06T08:30:08.968Z,102461.19
2022-10-06T08:32:35.640Z,102457.56
2022-10-06T08:35:02.429Z,102458.50
2022-10-06T08:37:29.060Z,102454.56
2022-10-06T08:39:56.168Z,102473.69
2022-10-06T08:42:38.734Z,102475.28
2022-10-06T08:45:38.604Z,102471.75
2022-10-06T08:48:10.244Z,102471.66
2022-10-06T08:50:47.857Z,102475.00
2022-10-06T08:53:24.231Z,102473.09
2022-10-06T08:56:08.381Z,102472.81
2022-10-06T08:59:04.330Z,102473.09
2022-10-06T09:01:39.001Z,102472.53
2022-10-06T09:04:07.727Z,102482.75
2022-10-06T09:07:11.359Z,102497.97
2022-10-06T09:10:16.414Z,102492.34
2022-10-06T09:13:00.189Z,102498.09
2022-10-06T09:15:34.190Z,102500.38
2022-10-06T09:18:09.225Z,102505.50
2022-10-06T09:20:51.320Z,102510.81
2022-10-06T09:23:41.806Z,102512.63
2022-10-06T09:26:12.736Z,102511.28
2022-10-06T09:28:40.093Z,102512.78
2022-10-06T09:31:39.864Z,102511.13
2022-10-06T09:34:28.131Z,102527.56
2022-10-06T09:37:09.511Z,102535.75
2022-10-06T09:39:38.238Z,102519.78
2022-10-06T09:42:35.857Z,102525.13
2022-10-06T09:45:29.149Z,102525.88
2022-10-06T09:48:12.439Z,102526.91
2022-10-06T09:50:39.508Z,102521.63
2022-10-06T09:53:12.015Z,102524.69
2022-10-06T09:55:38.628Z,102534.53
2022-10-06T09:58:23.855Z,102533.66
2022-10-06T10:00:54.243Z,102533.72
2022-10-06T10:03:21.806Z,102518.94
2022-10-06T10:05:52.420Z,102530.84
2022-10-06T10:08:27.976Z,102528.09
2022-10-06T10:11:38.044Z,102532.28
2022-10-06T10:14:14.442Z,102538.66
2022-10-06T10:16:41.287Z,102538.34
2022-10-06T10:19:25.690Z,102532.63
2022-10-06T10:21:53.726Z,102541.03
2022-10-06T10:24:55.269Z,102549.13
2022-10-06T10:27:39.529Z,102546.19
2022-10-06T10:30:11.526Z,102540.22
2022-10-06T10:32:59.498Z,102541.69
2022-10-06T10:35:29.382Z,102541.84
2022-10-06T10:38:27.059Z,102542.34
2022-10-06T10:41:00.332Z,102550.88
2022-10-06T10:43:34.540Z,102551.47
2022-10-06T10:46:17.016Z,102544.91
2022-10-06T10:48:58.258Z,102559.06
2022-10-06T10:51:30.878Z,102551.78
2022-10-06T10:54:18.210Z,102551.84
2022-10-06T10:56:45.113Z,102553.00
2022-10-06T10:59:23.346Z,102550.56
2022-10-06T11:02:00.525Z,102541.53
2022-10-06T11:04:27.519Z,102553.44
2022-10-06T11:07:25.111Z,102558.03
2022-10-06T11:10:00.898Z,102550.66
2022-10-06T11:12:42.921Z,102553.81
2022-10-06T11:15:29.140Z,102557.56
2022-10-06T11:18:03.170Z,102561.47
2022-10-06T11:21:06.178Z,102562.09
2022-10-06T11:24:03.073Z,102557.44
2022-10-06T11:27:08.010Z,102563.75
2022-10-06T11:29:46.449Z,102553.56
2022-10-06T11:32:22.402Z,102564.47
2022-10-06T11:34:50.146Z,102565.56
2022-10-06T11:37:32.080Z,102563.50
2022-10-06T11:40:40.688Z,102552.13
2022-10-06T11:43:23.820Z,102568.97
2022-10-06T11:46:31.198Z,102558.66
2022-10-06T11:49:30.061Z,102553.50
2022-10-06T11:52:00.297Z,102552.78
2022-10-06T11:54:54.521Z,102551.44
2022-10-06T11:57:29.631Z,102548.94
2022-10-06T12:00:17.719Z,102543.06
2022-10-06T12:02:46.409Z,102549.00
2022-10-06T12:05:55.196Z,102550.56
2022-10-06T12:08:00.393Z,102532.69
2022-10-06T12:10:30.223Z,102534.81
2022-10-06T12:13:51.387Z,102535.22
2022-10-06T12:19:18.803Z,102535.59
2022-10-06T12:21:57.985Z,102526.41
2022-10-06T12:24:30.071Z,102528.50
2022-10-06T12:27:20.716Z,102532.91
2022-10-06T12:30:21.407Z,102529.94
2022-10-06T12:32:58.300Z,102519.25
2022-10-06T12:35:31.972Z,102522.47
2022-10-06T12:38:04.896Z,102523.72
2022-10-06T12:40:52.555Z,102521.22
2022-10-06T12:43:27.705Z,102519.13
2022-10-06T12:46:08.109Z,102512.97
2022-10-06T12:49:12.778Z,102523.25
2022-10-06T12:51:41.625Z,102520.03
2022-10-06T12:54:15.346Z,102525.63
2022-10-06T12:56:43.567Z,102518.34
2022-10-06T12:59:22.233Z,102511.38
2022-10-06T13:01:54.786Z,102515.03
2022-10-06T13:04:34.692Z,102511.34
2022-10-06T13:07:10.183Z,102509.91
2022-10-06T13:09:36.937Z,102513.75
2022-10-06T13:12:25.236Z,102513.25
2022-10-06T13:15:13.742Z,102518.59
2022-10-06T13:17:52.480Z,102510.50
2022-10-06T13:20:24.727Z,102506.75
2022-10-06T13:23:05.667Z,102506.34
2022-10-06T13:25:41.509Z,102502.94
2022-10-06T13:28:22.696Z,102501.03
2022-10-06T13:33:33.097Z,102507.84
2022-10-06T13:35:59.895Z,102496.16
2022-10-06T13:38:26.579Z,102503.06
2022-10-06T13:41:21.984Z,102502.97
2022-10-06T13:44:11.825Z,102503.78
2022-10-06T13:46:40.486Z,102502.28
2022-10-06T13:49:20.201Z,102513.13
2022-10-06T13:51:49.601Z,102499.72
2022-10-06T13:54:55.509Z,102499.97
2022-10-06T13:57:53.850Z,102504.06
2022-10-06T14:00:31.685Z,102497.25
2022-10-06T14:03:04.512Z,102498.81
2022-10-06T14:05:40.996Z,102492.47
2022-10-06T14:08:10.585Z,102494.88
2022-10-06T14:10:40.258Z,102507.84
2022-10-06T14:13:09.593Z,102504.06
2022-10-06T14:15:50.017Z,102505.59
2022-10-06T14:18:45.214Z,102504.75
2022-10-06T14:21:37.236Z,102498.16
2022-10-06T14:24:37.912Z,102493.34
2022-10-06T14:27:06.732Z,102495.69
2022-10-06T14:29:34.244Z,102499.81
2022-10-06T14:32:27.157Z,102493.94
2022-10-06T14:34:53.765Z,102485.44
2022-10-06T14:37:20.372Z,102491.72
2022-10-06T14:39:46.955Z,102491.63
2022-10-06T14:42:14.982Z,102491.75
2022-10-06T14:44:43.254Z,102488.78
2022-10-06T14:47:09.887Z,102497.78
2022-10-06T14:49:37.910Z,102496.53
2022-10-06T14:52:05.648Z,102495.69
2022-10-06T14:54:34.404Z,102492.91
2022-10-06T14:57:01.014Z,102494.31
2022-10-06T14:59:28.199Z,102493.84
2022-10-06T15:01:54.827Z,102498.47
2022-10-06T15:04:24.693Z,102499.41
2022-10-06T15:07:10.020Z,102494.22
2022-10-06T15:09:36.698Z,102498.16
2022-10-06T15:12:03.853Z,102485.41
2022-10-06T15:14:30.489Z,102489.31
2022-10-06T15:17:00.961Z,102486.94
2022-10-06T15:19:27.861Z,102487.00
2022-10-06T15:21:54.611Z,102484.72
2022-10-06T15:24:21.438Z,102493.66
2022-10-06T15:27:10.589Z,102485.34
2022-10-06T15:29:38.454Z,102476.56
2022-10-06T15:32:08.486Z,102468.19
2022-10-06T15:34:41.333Z,102481.31
2022-10-06T15:37:19.241Z,102472.03
2022-10-06T15:39:46.801Z,102475.88
2022-10-06T15:42:15.590Z,102472.03
2022-10-06T15:44:42.190Z,102471.84
2022-10-06T15:47:08.857Z,102479.44
2022-10-06T15:49:40.546Z,102476.00
2022-10-06T15:52:08.867Z,102480.47
2022-10-06T15:54:37.736Z,102476.59
2022-10-06T15:57:06.218Z,102469.97
2022-10-06T15:59:34.579Z,102466.19
2022-10-06T16:02:04.641Z,102473.78
2022-10-06T16:04:39.757Z,102475.50
2022-10-06T16:07:08.036Z,102473.41
2022-10-06T16:09:43.042Z,102477.34
2022-10-06T16:12:11.475Z,102480.72
2022-10-06T16:14:46.560Z,102467.09
2022-10-06T16:17:18.701Z,102471.34
2022-10-06T16:19:46.471Z,102470.44
2022-10-06T16:22:16.083Z,102483.66
2022-10-06T16:24:42.769Z,102483.25
2022-10-06T16:27:13.548Z,102476.34
2022-10-06T16:29:45.321Z,102479.81
2022-10-06T16:32:12.102Z,102482.38
2022-10-06T16:34:38.722Z,102484.69
2022-10-06T16:37:05.399Z,102478.06
2022-10-06T16:39:32.109Z,102469.59
2022-10-06T16:41:58.659Z,102474.44
2022-10-06T16:44:25.278Z,102475.88
2022-10-06T16:46:51.953Z,102477.03
2022-10-06T16:49:18.763Z,102473.56
2022-10-06T16:51:48.283Z,102474.78
2022-10-06T16:54:17.509Z,102475.22
2022-10-06T16:56:48.894Z,102481.78
2022-10-06T16:59:34.445Z,102481.88
2022-10-06T17:02:01.100Z,102483.09
2022-10-06T17:04:27.817Z,102490.91
2022-10-06T17:06:57.000Z,102490.22
2022-10-06T17:09:26.512Z,102485.63
2022-10-06T17:12:03.654Z,102491.06
2022-10-06T17:14:32.261Z,102488.72
2022-10-06T17:16:59.562Z,102492.75
2022-10-06T17:19:28.769Z,102495.94
2022-10-06T17:21:59.046Z,102484.00
2022-10-06T17:24:28.685Z,102484.50
2022-10-06T17:26:56.267Z,102492.72
2022-10-06T17:29:23.370Z,102486.91
2022-10-06T17:31:59.267Z,102488.72
2022-10-06T17:34:32.258Z,102494.00
2022-10-06T17:37:00.961Z,102489.50
2022-10-06T17:39:27.584Z,102487.25
2022-10-06T17:41:54.384Z,102489.47
2022-10-06T17:44:27.961Z,102487.75
2022-10-06T17:46:56.669Z,102483.25
2022-10-06T17:49:24.427Z,102486.38
2022-10-06T17:51:52.188Z,102488.09
2022-10-06T17:54:20.871Z,102486.38
2022-10-06T17:56:53.065Z,102476.91
2022-10-06T17:59:25.234Z,102477.38
2022-10-06T18:01:56.390Z,102477.63
2022-10-06T18:04:23.559Z,102484.78
2022-10-06T18:06:53.136Z,102489.53
2022-10-06T18:09:20.048Z,102482.63
2022-10-06T18:11:55.536Z,102481.81
2022-10-06T18:14:28.526Z,102483.69
2022-10-06T18:16:58.487Z,102488.13
2022-10-06T18:19:30.479Z,102485.44
2022-10-06T18:22:00.510Z,102487.44
2022-10-06T18:24:29.224Z,102483.16
2022-10-06T18:26:57.505Z,102487.19
2022-10-06T18:29:26.886Z,102480.09
2022-10-06T18:32:27.270Z,102481.13
2022-10-06T18:37:35.832Z,102481.28
2022-10-06T18:40:06.241Z,102481.44
2022-10-06T18:42:33.297Z,102475.94
2022-10-06T18:45:18.660Z,102473.34
2022-10-06T18:48:03.826Z,102474.38
2022-10-06T18:50:31.131Z,102478.00
2022-10-06T18:52:57.867Z,102474.91
2022-10-06T18:55:26.508Z,102476.19
2022-10-06T18:57:53.294Z,102477.69
2022-10-06T19:00:26.416Z,102470.28
2022-10-06T19:02:55.489Z,102474.84
2022-10-06T19:05:24.745Z,102481.06
2022-10-06T19:07:53.515Z,102480.69
2022-10-06T19:10:20.250Z,102484.28
2022-10-06T19:12:50.370Z,102494.25
2022-10-06T19:15:20.683Z,102486.41
2022-10-06T19:17:48.580Z,102482.94
2022-10-06T19:20:15.337Z,102486.66
2022-10-06T19:22:44.857Z,102487.09
2022-10-06T19:25:11.621Z,102482.53
2022-10-06T19:27:38.284Z,102478.75
2022-10-06T19:30:05.442Z,102488.34
2022-10-06T19:32:32.846Z,102482.94
2022-10-06T19:34:59.694Z,102483.88
2022-10-06T19:37:28.099Z,102480.44
2022-10-06T19:39:54.864Z,102481.03
2022-10-06T19:42:40.275Z,102480.47
2022-10-06T19:45:09.821Z,102478.44
2022-10-06T19:47:36.584Z,102477.47
2022-10-06T19:50:10.421Z,102479.56
2022-10-06T19:52:38.677Z,102478.69
2022-10-06T19:55:05.631Z,102479.00
2022-10-06T19:57:33.769Z,102480.22
2022-10-06T20:00:00.622Z,102473.38
2022-10-06T20:02:29.070Z,102477.97
2022-10-06T20:04:56.162Z,102487.00
2022-10-06T20:07:25.616Z,102482.03
2022-10-06T20:09:52.232Z,102483.41
2022-10-06T20:12:24.385Z,102481.28
2022-10-06T20:14:51.745Z,102483.72
2022-10-06T20:17:18.363Z,102479.56
2022-10-06T20:19:46.633Z,102483.28
2022-10-06T20:22:13.475Z,102476.22
2022-10-06T20:24:40.363Z,102485.16
2022-10-06T20:27:07.099Z,102481.13
2022-10-06T20:29:34.748Z,102476.03
2022-10-06T20:32:01.696Z,102476.22
2022-10-06T20:34:32.902Z,102482.63
2022-10-06T20:37:02.074Z,102485.31
2022-10-06T20:39:48.778Z,102486.50
2022-10-06T20:42:15.982Z,102484.44
2022-10-06T20:44:43.436Z,102480.78
2022-10-06T20:47:11.537Z,102481.06
2022-10-06T20:49:38.606Z,102477.16
2022-10-06T20:52:06.070Z,102475.69
2022-10-06T20:54:36.022Z,102479.34
2022-10-06T20:57:05.373Z,102476.16
2022-10-06T20:59:33.272Z,102478.31
2022-10-06T21:02:00.334Z,102477.75
2022-10-06T21:04:30.208Z,102478.06
2022-10-06T21:06:57.603Z,102467.00
2022-10-06T21:09:24.841Z,102465.75
2022-10-06T21:11:52.124Z,102464.88
2022-10-06T21:14:19.235Z,102465.22
2022-10-06T21:16:47.708Z,102466.88
2022-10-06T21:19:17.269Z,102460.63
2022-10-06T21:21:49.878Z,102455.84
2022-10-06T21:24:16.614Z,102453.97
2022-10-06T21:26:43.203Z,102449.03
2022-10-06T21:29:12.972Z,102455.34
2022-10-06T21:31:39.835Z,102450.59
2022-10-06T21:34:06.592Z,102451.19
2022-10-06T21:36:33.264Z,102437.66
2022-10-06T21:39:07.406Z,102439.13
2022-10-06T21:41:39.442Z,102444.06
2022-10-06T21:44:10.594Z,102436.28
2022-10-06T21:46:43.212Z,102436.84
2022-10-06T21:49:11.575Z,102436.53
2022-10-06T21:51:39.116Z,102433.69
2022-10-06T21:54:06.090Z,102434.28
2022-10-06T21:56:33.902Z,102430.94
2022-10-06T21:59:00.566Z,102429.56
2022-10-06T22:01:32.416Z,102432.38
2022-10-06T22:04:02.825Z,102433.19
2022-10-06T22:06:31.210Z,102423.34
2022-10-06T22:08:59.270Z,102423.09
2022-10-06T22:11:28.173Z,102411.03
2022-10-06T22:13:56.999Z,102409.91
2022-10-06T22:16:25.973Z,102410.91
2022-10-06T22:18:52.899Z,102412.69
2022-10-06T22:21:24.136Z,102414.44
2022-10-06T22:24:02.159Z,102407.03
2022-10-06T22:26:30.824Z,102405.47
2022-10-06T22:28:58.592Z,102409.38
2022-10-06T22:31:26.671Z,102407.63
2022-10-06T22:33:55.521Z,102403.56
2022-10-06T22:36:22.772Z,102401.56
2022-10-06T22:38:49.316Z,102405.63
2022-10-06T22:41:16.131Z,102393.19
2022-10-06T22:43:42.747Z,102388.16
2022-10-06T22:46:10.216Z,102394.84
2022-10-06T22:48:37.099Z,102393.97
2022-10-06T22:51:04.483Z,102390.19
2022-10-06T22:53:31.458Z,102385.22
2022-10-06T22:56:02.238Z,102381.38
2022-10-06T22:58:29.342Z,102381.63
2022-10-06T23:00:56.348Z,102382.84
2022-10-06T23:03:23.724Z,102371.59
2022-10-06T23:05:54.995Z,102371.19
2022-10-06T23:08:21.926Z,102368.66
2022-10-06T23:10:48.578Z,102362.13
2022-10-06T23:13:15.173Z,102362.81
2022-10-06T23:15:41.805Z,102351.72
2022-10-06T23:18:08.495Z,102354.59
2022-10-06T23:20:35.246Z,102357.25
2022-10-06T23:23:01.857Z,102352.59
2022-10-06T23:25:28.462Z,102361.94
2022-10-06T23:27:55.111Z,102359.03
2022-10-06T23:30:21.743Z,102348.97
2022-10-06T23:32:48.295Z,102347.28
2022-10-06T23:35:14.966Z,102350.47
2022-10-06T23:37:41.882Z,102348.06
2022-10-06T23:40:09.306Z,102346.16
2022-10-06T23:42:36.002Z,102339.28
2022-10-06T23:45:02.603Z,102346.47
2022-10-06T23:47:29.208Z,102339.13
2022-10-06T23:49:55.768Z,102346.00
2022-10-06T23:52:22.493Z,102336.97
2022-10-06T23:54:49.662Z,102337.69
2022-10-06T23:57:16.252Z,102331.47
2022-10-06T23:59:42.797Z,102331.69
